Kezdőlap
METAR-TAF:

METAR-TAF

Repülőterek :

Kano, Nigéria

földrajzi szélesség: 12-03N, földrajzi hosszúság: 008-32E, magasság: 476 m

Jelenlegi meteorológiai megfigyelések

A jelentés 42 perccel ezelõtt készült, 23:00 UTC
Északkeleti szél 3 kt
Hőmérséklet 16°C
Páratartalom 55%
Légköri nyomás 1020 hPa
Látótávolság: 4000 m

METAR: DNKN 182300Z 05003KT 4000 NSC 16/07 Q1020 NOSIG

Idő: 00:42 (23:42 UTC)

Előrejelzés

A jelentés 42 perccel ezelõtt készült, 23:00 UTC
Az előrejelzés 19-én 00 óra UTC és 20-én 06 óra UTC között érvényes
Kelet-északkeleti szél 8 kt
Látótávolság: 5000 m
Száraz légköri homály
19-én 07 óra UTC és 19-én 13 óra UTC között ideiglenes
Látótávolság: 0800 m
kiterjedt por

TAF: DNKN 182300Z 1900/2006 06008KT 5000 HZ NSC TEMPO 1907/1913 0800 DU

Meteorológiai megfigyelések és előrejelzések több, mint 4000 repülőtéren (METAR és TAF jelentéseket).

A térképen piros és sárga pontok jelzik az elérhető meteorológiai állomásokat.

Mozgassa az egeret a pont fölött, hogy megjelenjen az állomás neve.

Azután kattintson az időjárási megfigyelések és előrejelzések megtekintéséhez.

A térkép megváltoztatása: kattintson a fekete keresztel jelölt zöld gombra ráközelítéshez, a vonallal jelölt zöld gombra távolításhoz, vagy a zöld nyilakra a szomszédos térképek eléréséhez.


METAR-TAF: